| time (UTC) | temp F | wind direction | speed MPH | gust MPH | rain 1hr in | rain 24hr in | rain mn in | humidity % | barometer mb |
| 20260508212523 | 79 | 286 | 2.0 | 5.0 | 0.00 | 0.45 | 0.45 | 60 | 1007.9 |
| 20260508211522 | 81 | 240 | 1.0 | 5.0 | 0.00 | 0.45 | 0.45 | 61 | 1008.2 |
| 20260508210522 | 81 | 281 | 1.0 | 3.0 | 0.00 | 0.45 | 0.45 | 61 | 1008.2 |
| 20260508205523 | 80 | 217 | 1.0 | 6.0 | 0.00 | 0.45 | 0.45 | 62 | 1008.1 |
| 20260508205003 | 78 | 250 | 1.0 | 3.0 | 0.00 | 0.45 | 0.45 | 64 | 1008.3 |
| 20260508204448 | 77 | 199 | 1.0 | 3.0 | 0.00 | 0.45 | 0.45 | 66 | 1008.9 |
| 20260508202959 | 75 | 233 | 1.0 | 5.0 | 0.00 | 0.45 | 0.45 | 67 | 1009.8 |
| 20260508201522 | 75 | 274 | 1.0 | 4.0 | 0.00 | 0.45 | 0.45 | 67 | 1010.1 |
| 20260508200523 | 75 | 266 | 1.0 | 3.0 | 0.00 | 0.45 | 0.45 | 67 | 1010.1 |
| 20260508195524 | 76 | 190 | 1.0 | 6.0 | 0.00 | 0.45 | 0.45 | 67 | 1010.0 |
| 20260508194522 | 76 | 271 | 2.0 | 4.0 | 0.00 | 0.45 | 0.45 | 65 | 1010.0 |
| 20260508193523 | 76 | 258 | 2.0 | 5.0 | 0.00 | 0.45 | 0.45 | 65 | 1010.1 |
| 20260508192522 | 77 | 251 | 1.0 | 4.0 | 0.00 | 0.45 | 0.45 | 65 | 1010.2 |
| 20260508191958 | 77 | 192 | 1.0 | 4.0 | 0.00 | 0.45 | 0.45 | 63 | 1010.1 |
| 20260508190522 | 78 | 212 | 1.0 | 4.0 | 0.00 | 0.45 | 0.45 | 63 | 1010.2 |
| 20260508185522 | 78 | 238 | 2.0 | 4.0 | 0.00 | 0.45 | 0.45 | 61 | 1010.3 |
| 20260508184524 | 79 | 199 | 1.0 | 6.0 | 0.00 | 0.45 | 0.45 | 61 | 1010.3 |
| 20260508183523 | 80 | 207 | 1.0 | 4.0 | 0.00 | 0.45 | 0.45 | 62 | 1010.4 |
| 20260508183006 | 79 | 292 | 1.0 | 4.0 | 0.00 | 0.45 | 0.45 | 64 | 1010.5 |
| 20260508181523 | 78 | 131 | 1.0 | 4.0 | 0.00 | 0.45 | 0.45 | 64 | 1010.7 |
| 20260508180522 | 78 | 278 | 2.0 | 6.0 | 0.00 | 0.45 | 0.45 | 65 | 1011.1 |
| 20260508180004 | 77 | 223 | 1.0 | 6.0 | 0.00 | 0.45 | 0.45 | 68 | 1011.2 |
| 20260508174956 | 76 | 276 | 5.0 | 9.0 | 0.00 | 0.45 | 0.45 | 62 | 1011.3 |
| 20260508173522 | 77 | 117 | 1.0 | 9.0 | 0.00 | 0.45 | 0.45 | 64 | 1011.5 |
| 20260508172523 | 76 | 251 | 2.0 | 6.0 | 0.00 | 0.45 | 0.45 | 64 | 1011.6 |
| 20260508171522 | 76 | 224 | 1.0 | 3.0 | 0.00 | 0.45 | 0.45 | 64 | 1011.6 |
| 20260508170522 | 75 | 178 | 1.0 | 4.0 | 0.00 | 0.45 | 0.45 | 65 | 1011.8 |
| 20260508165522 | 74 | 45 | 1.0 | 4.0 | 0.00 | 0.45 | 0.45 | 67 | 1012.0 |
| 20260508164522 | 73 | 152 | 1.0 | 5.0 | 0.00 | 0.45 | 0.45 | 66 | 1012.2 |
| 20260508163523 | 73 | 125 | 1.0 | 3.0 | 0.00 | 0.45 | 0.45 | 67 | 1012.5 |
| 20260508162523 | 73 | 62 | 1.0 | 4.0 | 0.00 | 0.45 | 0.45 | 67 | 1012.7 |
| 20260508161523 | 72 | 106 | 1.0 | 4.0 | 0.00 | 0.45 | 0.45 | 70 | 1012.9 |
| 20260508160522 | 70 | 320 | 1.0 | 2.0 | 0.00 | 0.45 | 0.45 | 72 | 1013.0 |
| 20260508155522 | 69 | 282 | 0.0 | 2.0 | 0.00 | 0.45 | 0.45 | 73 | 1013.0 |
| 20260508154523 | 68 | 219 | 0.0 | 3.0 | 0.00 | 0.45 | 0.45 | 74 | 1013.1 |
| 20260508153522 | 68 | 231 | 0.0 | 4.0 | 0.00 | 0.45 | 0.45 | 74 | 1013.3 |
| 20260508152522 | 67 | 286 | 0.0 | 3.0 | 0.00 | 0.45 | 0.45 | 78 | 1013.2 |
| 20260508151522 | 67 | 230 | 0.0 | 1.0 | 0.00 | 0.45 | 0.45 | 77 | 1013.2 |
| 20260508150521 | 67 | 149 | 0.0 | 0.0 | 0.00 | 0.45 | 0.45 | 77 | 1013.6 |
| 20260508145521 | 67 | 226 | 0.0 | 0.0 | 0.00 | 0.45 | 0.45 | 76 | 1013.5 |
| 20260508144520 | 67 | 148 | 0.0 | 1.0 | 0.00 | 0.45 | 0.45 | 79 | 1013.6 |
| 20260508143520 | 66 | 176 | 0.0 | 0.0 | 0.00 | 0.45 | 0.45 | 84 | 1013.4 |
| 20260508143003 | 65 | 233 | 0.0 | 0.0 | 0.00 | 0.45 | 0.45 | 85 | 1013.9 |
| 20260508142012 | 64 | 244 | 0.0 | 0.0 | 0.00 | 0.45 | 0.45 | 84 | 1013.9 |
| 20260508140520 | 64 | 110 | 0.0 | 0.0 | 0.00 | 0.45 | 0.45 | 87 | 1013.8 |
| 20260508135520 | 63 | 97 | 0.0 | 0.0 | 0.00 | 0.45 | 0.45 | 88 | 1013.6 |
| 20260508135002 | 63 | 76 | 0.0 | 0.0 | 0.01 | 0.45 | 0.45 | 88 | 1013.7 |
| 20260508134452 | 62 | 137 | 0.0 | 1.0 | 0.02 | 0.45 | 0.45 | 90 | 1013.4 |
| 20260508132519 | 62 | 210 | 0.0 | 1.0 | 0.04 | 0.45 | 0.45 | 91 | 1013.6 |
| 20260508131519 | 62 | 216 | 0.0 | 1.0 | 0.05 | 0.45 | 0.45 | 91 | 1013.7 |
| 20260508130520 | 61 | 230 | 0.0 | 1.0 | 0.15 | 0.45 | 0.45 | 91 | 1013.5 |
| 20260508125521 | 61 | 230 | 0.0 | 0.0 | 0.15 | 0.30 | 0.45 | 91 | 1013.7 |
| 20260508124520 | 61 | 230 | 0.0 | 0.0 | 0.14 | 0.30 | 0.44 | 91 | 1013.9 |
| 20260508123520 | 61 | 230 | 0.0 | 0.0 | 0.13 | 0.30 | 0.43 | 91 | 1013.7 |
| 20260508123007 | 60 | 230 | 0.0 | 1.0 | 0.11 | 0.30 | 0.41 | 90 | 1013.9 |
| 20260508122005 | 61 | 269 | 0.0 | 1.0 | 0.10 | 0.30 | 0.40 | 90 | 1013.6 |
| 20260508120521 | 61 | 274 | 0.0 | 6.0 | 0.00 | 0.30 | 0.30 | 91 | 1014.6 |
| 20260508115521 | 60 | 220 | 0.0 | 0.0 | 0.00 | 0.30 | 0.30 | 91 | 1013.6 |
| 20260508114954 | 60 | 217 | 0.0 | 0.0 | 0.00 | 0.30 | 0.30 | 91 | 1013.6 |
| 20260508113523 | 60 | 217 | 0.0 | 0.0 | 0.01 | 0.30 | 0.30 | 91 | 1013.8 |
| 20260508112521 | 60 | 230 | 0.0 | 0.0 | 0.15 | 0.30 | 0.30 | 91 | 1013.8 |
| 20260508111522 | 60 | 230 | 0.0 | 0.0 | 0.20 | 0.30 | 0.30 | 91 | 1013.6 |
| 20260508110521 | 60 | 87 | 0.0 | 0.0 | 0.20 | 0.30 | 0.30 | 91 | 1013.4 |
| 20260508105958 | 60 | 219 | 0.0 | 0.0 | 0.21 | 0.10 | 0.30 | 91 | 1013.5 |
| 20260508104520 | 61 | 237 | 0.0 | 0.0 | 0.22 | 0.10 | 0.30 | 90 | 1013.5 |
| 20260508103956 | 60 | 148 | 0.0 | 2.0 | 0.21 | 0.10 | 0.29 | 90 | 1013.6 |
| 20260508103007 | 60 | 245 | 3.0 | 5.0 | 0.07 | 0.10 | 0.14 | 90 | 1014.9 |
| 20260508101521 | 60 | 272 | 0.0 | 0.0 | 0.02 | 0.10 | 0.10 | 90 | 1013.4 |
| 20260508100521 | 60 | 272 | 0.0 | 0.0 | 0.02 | 0.10 | 0.10 | 90 | 1013.4 |
| 20260508095522 | 60 | 125 | 0.0 | 0.0 | 0.01 | 0.08 | 0.09 | 91 | 1013.0 |
| 20260508094521 | 60 | 195 | 0.0 | 0.0 | 0.00 | 0.08 | 0.08 | 91 | 1013.3 |
| 20260508094006 | 60 | 195 | 0.0 | 0.0 | 0.01 | 0.08 | 0.08 | 91 | 1012.9 |
| 20260508092959 | 60 | 195 | 0.0 | 0.0 | 0.01 | 0.08 | 0.08 | 90 | 1013.1 |
| 20260508091521 | 60 | 195 | 0.0 | 0.0 | 0.03 | 0.08 | 0.08 | 90 | 1013.1 |
| 20260508090520 | 60 | 195 | 0.0 | 0.0 | 0.03 | 0.08 | 0.08 | 90 | 1013.2 |
| 20260508085521 | 60 | 195 | 0.0 | 0.0 | 0.04 | 0.05 | 0.08 | 89 | 1013.4 |
| 20260508084521 | 61 | 164 | 0.0 | 0.0 | 0.05 | 0.05 | 0.08 | 89 | 1013.1 |
| 20260508083521 | 61 | 157 | 0.0 | 1.0 | 0.04 | 0.05 | 0.07 | 89 | 1013.5 |
| 20260508082522 | 61 | 39 | 0.0 | 3.0 | 0.05 | 0.05 | 0.07 | 89 | 1013.7 |
| 20260508081521 | 61 | 45 | 1.0 | 6.0 | 0.05 | 0.05 | 0.05 | 88 | 1014.1 |
| 20260508080522 | 61 | 73 | 1.0 | 3.0 | 0.05 | 0.05 | 0.05 | 86 | 1014.1 |
| 20260508075522 | 62 | 276 | 0.0 | 1.0 | 0.04 | 0.00 | 0.04 | 87 | 1013.4 |
| 20260508074954 | 62 | 276 | 0.0 | 1.0 | 0.03 | 0.00 | 0.03 | 85 | 1014.2 |
| 20260508073522 | 62 | 281 | 0.0 | 0.0 | 0.03 | 0.00 | 0.03 | 83 | 1014.4 |
| 20260508073441 | 63 | 281 | 0.0 | 3.0 | 0.02 | 0.00 | 0.02 | 80 | 1014.8 |
| 20260508071521 | 63 | 278 | 0.0 | 2.0 | 0.00 | 0.00 | 0.00 | 78 | 1014.8 |
| 20260508070522 | 63 | 272 | 0.0 | 1.0 | 0.00 | 0.00 | 0.00 | 78 | 1014.4 |
| 20260508065521 | 63 | 272 | 0.0 | 0.0 | 0.00 | 0.00 | 0.00 | 77 | 1014.3 |
| 20260508064522 | 63 | 272 | 0.0 | 0.0 | 0.00 | 0.00 | 0.00 | 75 | 1014.2 |
| 20260508063522 | 63 | 272 | 0.0 | 0.0 | 0.00 | 0.00 | 0.00 | 75 | 1014.7 |
| 20260508062956 | 62 | 272 | 0.0 | 0.0 | 0.00 | 0.00 | 0.00 | 75 | 1014.7 |
| 20260508061522 | 62 | 272 | 0.0 | 0.0 | 0.00 | 0.00 | 0.00 | 75 | 1015.1 |
| 20260508060522 | 62 | 272 | 0.0 | 0.0 | 0.00 | 0.00 | 0.00 | 75 | 1015.1 |
| 20260508055521 | 62 | 272 | 0.0 | 0.0 | 0.00 | 0.00 | 0.00 | 75 | 1014.8 |
| 20260508054522 | 62 | 271 | 0.0 | 0.0 | 0.00 | 0.00 | 0.00 | 74 | 1014.9 |
| 20260508053522 | 62 | 271 | 0.0 | 0.0 | 0.00 | 0.00 | 0.00 | 73 | 1014.8 |
| 20260508052521 | 62 | 271 | 0.0 | 0.0 | 0.00 | 0.00 | 0.00 | 72 | 1014.7 |
| 20260508051521 | 62 | 271 | 0.0 | 0.0 | 0.00 | 0.00 | 0.00 | 72 | 1014.9 |
| 20260508050521 | 62 | 271 | 0.0 | 0.0 | 0.00 | 0.00 | 0.00 | 72 | 1014.9 |
| 20260508045521 | 62 | 271 | 0.0 | 0.0 | 0.00 | 0.00 | 0.00 | 72 | 1014.9 |
| 20260508044522 | 62 | 271 | 0.0 | 0.0 | 0.00 | 0.00 | 0.00 | 73 | 1015.1 |
| 20260508043521 | 62 | 271 | 0.0 | 0.0 | 0.00 | 0.00 | 0.00 | 72 | 1014.8 |
| 20260508042522 | 62 | 271 | 0.0 | 0.0 | 0.00 | 0.00 | 0.00 | 73 | 1014.9 |
| 20260508042007 | 62 | 271 | 0.0 | 0.0 | 0.00 | 0.00 | 0.00 | 73 | 1014.9 |
| 20260508040521 | 62 | 271 | 0.0 | 0.0 | 0.00 | 0.00 | 0.00 | 72 | 1014.8 |
| 20260508035522 | 62 | 271 | 0.0 | 0.0 | 0.00 | 0.00 | 0.00 | 72 | 1014.9 |
| 20260508034521 | 62 | 271 | 0.0 | 0.0 | 0.00 | 0.00 | 0.00 | 70 | 1014.8 |
| 20260508033521 | 63 | 271 | 0.0 | 0.0 | 0.00 | 0.00 | 0.00 | 70 | 1014.7 |
| 20260508032521 | 63 | 271 | 0.0 | 0.0 | 0.00 | 0.00 | 0.00 | 70 | 1014.7 |
| 20260508032439 | 63 | 271 | 0.0 | 0.0 | 0.00 | 0.00 | 0.00 | 70 | 1014.6 |
| 20260508030522 | 63 | 271 | 0.0 | 1.0 | 0.00 | 0.00 | 0.00 | 70 | 1014.5 |
| 20260508030010 | 63 | 269 | 0.0 | 1.0 | 0.00 | 0.00 | 0.00 | 70 | 1014.5 |
| 20260508024519 | 63 | 271 | 0.0 | 0.0 | 0.00 | 0.00 | 0.00 | 69 | 1014.4 |
| 20260508023518 | 64 | 271 | 0.0 | 0.0 | 0.00 | 0.00 | 0.00 | 68 | 1014.2 |
| 20260508022519 | 64 | 271 | 0.0 | 0.0 | 0.00 | 0.00 | 0.00 | 67 | 1014.2 |
| 20260508021956 | 65 | 269 | 0.0 | 1.0 | 0.00 | 0.00 | 0.00 | 66 | 1014.1 |
| 20260508020519 | 65 | 214 | 0.0 | 1.0 | 0.00 | 0.00 | 0.00 | 66 | 1013.9 |
| 20260508015956 | 65 | 151 | 0.0 | 0.0 | 0.00 | 0.00 | 0.00 | 65 | 1013.9 |
| 20260508014956 | 66 | 151 | 0.0 | 0.0 | 0.00 | 0.00 | 0.00 | 64 | 1014.0 |
| 20260508013518 | 67 | 151 | 0.0 | 2.0 | 0.00 | 0.00 | 0.00 | 62 | 1013.9 |
| 20260508012519 | 67 | 228 | 0.0 | 1.0 | 0.00 | 0.00 | 0.00 | 62 | 1013.9 |
| 20260508011519 | 67 | 262 | 0.0 | 2.0 | 0.00 | 0.00 | 0.00 | 61 | 1013.9 |
| 20260508010520 | 68 | 275 | 0.0 | 0.0 | 0.00 | 0.00 | 0.00 | 61 | 1013.9 |
| 20260508005520 | 68 | 90 | 0.0 | 1.0 | 0.00 | 0.00 | 0.00 | 60 | 1013.9 |
| 20260508004519 | 69 | 204 | 0.0 | 1.0 | 0.00 | 0.00 | 0.00 | 59 | 1013.8 |
| 20260508003520 | 70 | 140 | 0.0 | 2.0 | 0.00 | 0.00 | 0.00 | 57 | 1013.9 |
| 20260508002520 | 71 | 247 | 0.0 | 2.0 | 0.00 | 0.00 | 0.00 | 56 | 1013.7 |
| 20260508001957 | 72 | 158 | 0.0 | 3.0 | 0.00 | 0.00 | 0.00 | 56 | 1013.9 |
| 20260508000520 | 72 | 268 | 0.0 | 4.0 | 0.00 | 0.00 | 0.00 | 56 | 1014.2 |
| 20260507235519 | 72 | 127 | 1.0 | 3.0 | 0.00 | 0.00 | 0.00 | 54 | 1014.0 |
| 20260507234519 | 73 | 192 | 1.0 | 4.0 | 0.00 | 0.00 | 0.00 | 53 | 1014.1 |
| 20260507233519 | 74 | 190 | 1.0 | 2.0 | 0.00 | 0.00 | 0.00 | 53 | 1014.1 |
| 20260507232521 | 73 | 116 | 0.0 | 1.0 | 0.00 | 0.00 | 0.00 | 51 | 1014.0 |
| 20260507231521 | 73 | 38 | 0.0 | 1.0 | 0.00 | 0.00 | 0.00 | 48 | 1014.0 |
| 20260507230521 | 73 | 44 | 0.0 | 3.0 | 0.00 | 0.00 | 0.00 | 48 | 1014.0 |
| 20260507225520 | 73 | 37 | 2.0 | 4.0 | 0.00 | 0.00 | 0.00 | 49 | 1014.1 |
| 20260507225009 | 73 | 35 | 0.0 | 0.0 | 0.00 | 0.00 | 0.00 | 49 | 1014.2 |
| 20260507223521 | 72 | 34 | 1.0 | 2.0 | 0.00 | 0.00 | 0.00 | 51 | 1014.2 |
| 20260507222521 | 73 | 35 | 2.0 | 4.0 | 0.00 | 0.00 | 0.00 | 49 | 1014.4 |
| 20260507221521 | 73 | 4 | 0.0 | 3.0 | 0.00 | 0.00 | 0.00 | 48 | 1014.4 |
| 20260507221003 | 73 | 38 | 1.0 | 3.0 | 0.00 | 0.00 | 0.00 | 48 | 1014.5 |
| 20260507220010 | 73 | 25 | 1.0 | 4.0 | 0.00 | 0.00 | 0.00 | 49 | 1014.6 |
| 20260507214521 | 74 | 336 | 0.0 | 4.0 | 0.00 | 0.00 | 0.00 | 46 | 1014.7 |
| 20260507213520 | 74 | 159 | 0.0 | 3.0 | 0.00 | 0.00 | 0.00 | 50 | 1014.7 |